sensor_id;sensor_type;location;lat;lon;timestamp;pressure;altitude;pressure_sealevel;temperature;humidity
64023;BME280;50264;52.088;5.296;2023-02-12T00:02:09;103798.0;;;8.1;92.36
64023;BME280;50264;52.088;5.296;2023-02-12T00:03:46;103801.0;;;8.13;92.36
64023;BME280;50264;52.088;5.296;2023-02-12T00:05:23;103802.0;;;8.18;92.33
64023;BME280;50264;52.088;5.296;2023-02-12T00:07:00;103801.0;;;8.22;91.73
64023;BME280;50264;52.088;5.296;2023-02-12T00:10:14;103805.0;;;8.22;91.84
64023;BME280;50264;52.088;5.296;2023-02-12T00:11:51;103804.0;;;8.15;91.9
64023;BME280;50264;52.088;5.296;2023-02-12T00:13:29;103805.0;;;8.09;92.11
64023;BME280;50264;52.088;5.296;2023-02-12T00:16:43;103803.0;;;8.0;93.23
64023;BME280;50264;52.088;5.296;2023-02-12T00:18:20;103804.0;;;8.07;92.76
64023;BME280;50264;52.088;5.296;2023-02-12T00:19:56;103799.0;;;8.05;92.69
64023;BME280;50264;52.088;5.296;2023-02-12T00:21:34;103805.0;;;8.07;92.66
64023;BME280;50264;52.088;5.296;2023-02-12T00:24:47;103804.0;;;8.03;92.76
64023;BME280;50264;52.088;5.296;2023-02-12T00:26:25;103804.0;;;8.06;92.76
64023;BME280;50264;52.088;5.296;2023-02-12T00:28:01;103803.0;;;8.01;93.04
64023;BME280;50264;52.088;5.296;2023-02-12T00:31:17;103802.0;;;7.98;92.94
64023;BME280;50264;52.088;5.296;2023-02-12T00:32:54;103801.0;;;7.99;93.1
64023;BME280;50264;52.088;5.296;2023-02-12T00:34:30;103800.0;;;8.05;92.74
64023;BME280;50264;52.088;5.296;2023-02-12T00:37:48;103801.0;;;8.02;92.59
64023;BME280;50264;52.088;5.296;2023-02-12T00:39:25;103799.0;;;8.01;92.76
64023;BME280;50264;52.088;5.296;2023-02-12T00:41:02;103795.0;;;8.11;92.76
64023;BME280;50264;52.088;5.296;2023-02-12T00:42:39;103795.0;;;8.11;92.38
64023;BME280;50264;52.088;5.296;2023-02-12T00:45:52;103793.0;;;8.07;92.9
64023;BME280;50264;52.088;5.296;2023-02-12T00:47:28;103796.0;;;8.19;92.36
64023;BME280;50264;52.088;5.296;2023-02-12T00:49:04;103795.0;;;8.11;92.55
64023;BME280;50264;52.088;5.296;2023-02-12T00:52:20;103796.0;;;8.13;92.34
64023;BME280;50264;52.088;5.296;2023-02-12T00:53:56;103796.0;;;8.05;92.73
64023;BME280;50264;52.088;5.296;2023-02-12T00:55:32;103801.0;;;8.0;93.06
64023;BME280;50264;52.088;5.296;2023-02-12T00:57:09;103801.0;;;7.99;93.15
64023;BME280;50264;52.088;5.296;2023-02-12T01:00:22;103799.0;;;8.01;92.83
64023;BME280;50264;52.088;5.296;2023-02-12T01:01:59;103799.0;;;7.95;93.07
64023;BME280;50264;52.088;5.296;2023-02-12T01:03:35;103799.0;;;8.02;92.92
64023;BME280;50264;52.088;5.296;2023-02-12T01:06:49;103799.0;;;8.02;92.72
64023;BME280;50264;52.088;5.296;2023-02-12T01:08:25;103800.0;;;7.99;92.81
64023;BME280;50264;52.088;5.296;2023-02-12T01:10:03;103800.0;;;7.96;92.93
64023;BME280;50264;52.088;5.296;2023-02-12T01:13:17;103801.0;;;7.96;92.97
64023;BME280;50264;52.088;5.296;2023-02-12T01:14:53;103799.0;;;7.95;93.37
64023;BME280;50264;52.088;5.296;2023-02-12T01:16:31;103797.0;;;7.91;93.33
64023;BME280;50264;52.088;5.296;2023-02-12T01:18:08;103795.0;;;7.91;93.92
64023;BME280;50264;52.088;5.296;2023-02-12T01:21:23;103795.0;;;7.94;93.72
64023;BME280;50264;52.088;5.296;2023-02-12T01:23:00;103800.0;;;7.94;93.64
64023;BME280;50264;52.088;5.296;2023-02-12T01:24:37;103798.0;;;7.9;93.56
64023;BME280;50264;52.088;5.296;2023-02-12T01:27:54;103793.0;;;7.87;93.87
64023;BME280;50264;52.088;5.296;2023-02-12T01:29:31;103791.00000000001;;;7.89;94.1
64023;BME280;50264;52.088;5.296;2023-02-12T01:31:08;103792.0;;;7.9;93.95
64023;BME280;50264;52.088;5.296;2023-02-12T01:32:45;103793.0;;;7.87;93.77
64023;BME280;50264;52.088;5.296;2023-02-12T01:35:57;103792.0;;;7.89;93.21
64023;BME280;50264;52.088;5.296;2023-02-12T01:37:34;103798.0;;;7.9;93.48
64023;BME280;50264;52.088;5.296;2023-02-12T01:39:12;103795.0;;;7.86;93.73
64023;BME280;50264;52.088;5.296;2023-02-12T01:42:26;103800.0;;;7.9;93.77
64023;BME280;50264;52.088;5.296;2023-02-12T01:44:06;103795.0;;;7.89;93.46
64023;BME280;50264;52.088;5.296;2023-02-12T01:45:48;103798.0;;;7.89;93.74
64023;BME280;50264;52.088;5.296;2023-02-12T01:47:26;103796.0;;;7.89;93.67
64023;BME280;50264;52.088;5.296;2023-02-12T01:50:47;103795.0;;;7.9;93.48
64023;BME280;50264;52.088;5.296;2023-02-12T01:52:27;103794.0;;;7.91;93.01
64023;BME280;50264;52.088;5.296;2023-02-12T01:54:07;103800.0;;;7.86;93.37
64023;BME280;50264;52.088;5.296;2023-02-12T01:55:47;103800.0;;;7.86;93.32
64023;BME280;50264;52.088;5.296;2023-02-12T01:59:03;103797.0;;;7.83;93.81
64023;BME280;50264;52.088;5.296;2023-02-12T02:00:41;103797.0;;;7.85;93.53
64023;BME280;50264;52.088;5.296;2023-02-12T02:02:18;103800.0;;;7.9;93.18
64023;BME280;50264;52.088;5.296;2023-02-12T02:05:42;103792.0;;;7.79;93.63
64023;BME280;50264;52.088;5.296;2023-02-12T02:07:21;103795.0;;;7.79;93.81
64023;BME280;50264;52.088;5.296;2023-02-12T02:08:58;103793.0;;;7.75;93.77
64023;BME280;50264;52.088;5.296;2023-02-12T02:10:36;103791.00000000001;;;7.71;94.05
64023;BME280;50264;52.088;5.296;2023-02-12T02:16:17;103792.0;;;7.68;94.42
64023;BME280;50264;52.088;5.296;2023-02-12T02:18:02;103795.0;;;7.71;94.63
64023;BME280;50264;52.088;5.296;2023-02-12T02:20:01;103796.0;;;7.65;94.78
64023;BME280;50264;52.088;5.296;2023-02-12T02:23:39;103796.0;;;7.65;94.32
64023;BME280;50264;52.088;5.296;2023-02-12T02:29:04;103791.00000000001;;;7.66;94.35
64023;BME280;50264;52.088;5.296;2023-02-12T02:30:52;103784.99999999999;;;7.69;94.4
64023;BME280;50264;52.088;5.296;2023-02-12T02:32:36;103784.99999999999;;;7.72;94.31
64023;BME280;50264;52.088;5.296;2023-02-12T02:34:22;103789.00000000001;;;7.71;94.56
64023;BME280;50264;52.088;5.296;2023-02-12T02:36:14;103792.0;;;7.71;94.28
64023;BME280;50264;52.088;5.296;2023-02-12T02:38:03;103792.0;;;7.75;94.27
64023;BME280;50264;52.088;5.296;2023-02-12T02:39:50;103786.99999999999;;;7.73;94.37
64023;BME280;50264;52.088;5.296;2023-02-12T02:43:16;103780.0;;;7.67;94.55
64023;BME280;50264;52.088;5.296;2023-02-12T02:44:57;103779.0;;;7.7;94.68
64023;BME280;50264;52.088;5.296;2023-02-12T02:46:39;103777.0;;;7.71;94.58
64023;BME280;50264;52.088;5.296;2023-02-12T02:48:23;103781.0;;;7.69;94.68
64023;BME280;50264;52.088;5.296;2023-02-12T02:51:49;103777.0;;;7.7;94.62
64023;BME280;50264;52.088;5.296;2023-02-12T02:53:33;103781.0;;;7.76;94.34
64023;BME280;50264;52.088;5.296;2023-02-12T02:55:17;103783.99999999999;;;7.75;94.16
64023;BME280;50264;52.088;5.296;2023-02-12T02:57:00;103779.0;;;7.74;94.17
64023;BME280;50264;52.088;5.296;2023-02-12T02:58:43;103777.0;;;7.71;94.32
64023;BME280;50264;52.088;5.296;2023-02-12T03:02:12;103780.0;;;7.74;94.37
64023;BME280;50264;52.088;5.296;2023-02-12T03:03:55;103774.0;;;7.69;94.46
64023;BME280;50264;52.088;5.296;2023-02-12T03:05:39;103772.0;;;7.7;94.47
64023;BME280;50264;52.088;5.296;2023-02-12T03:07:20;103771.0;;;7.71;94.2
64023;BME280;50264;52.088;5.296;2023-02-12T03:09:03;103771.0;;;7.75;93.84
64023;BME280;50264;52.088;5.296;2023-02-12T03:12:32;103768.0;;;7.72;94.29
64023;BME280;50264;52.088;5.296;2023-02-12T03:14:15;103766.00000000001;;;7.67;94.15
64023;BME280;50264;52.088;5.296;2023-02-12T03:15:58;103767.0;;;7.73;94.21
64023;BME280;50264;52.088;5.296;2023-02-12T03:17:40;103764.00000000001;;;7.7;94.36
64023;BME280;50264;52.088;5.296;2023-02-12T03:21:03;103758.99999999999;;;7.85;93.88
64023;BME280;50264;52.088;5.296;2023-02-12T03:22:46;103763.00000000001;;;7.92;93.37
64023;BME280;50264;52.088;5.296;2023-02-12T03:24:30;103763.00000000001;;;7.79;93.94
64023;BME280;50264;52.088;5.296;2023-02-12T03:26:14;103765.00000000001;;;7.7;94.19
64023;BME280;50264;52.088;5.296;2023-02-12T03:27:56;103768.0;;;7.66;94.34
64023;BME280;50264;52.088;5.296;2023-02-12T03:31:21;103763.00000000001;;;7.65;94.89
64023;BME280;50264;52.088;5.296;2023-02-12T03:33:15;103768.0;;;7.61;94.78
64023;BME280;50264;52.088;5.296;2023-02-12T03:35:05;103767.0;;;7.63;95.27
64023;BME280;50264;52.088;5.296;2023-02-12T03:36:50;103774.0;;;7.62;95.24
64023;BME280;50264;52.088;5.296;2023-02-12T03:38:34;103771.0;;;7.6;95.46
64023;BME280;50264;52.088;5.296;2023-02-12T03:42:00;103772.0;;;7.67;94.91
64023;BME280;50264;52.088;5.296;2023-02-12T03:43:46;103772.0;;;7.7;94.42
64023;BME280;50264;52.088;5.296;2023-02-12T03:45:34;103768.0;;;7.67;94.75
64023;BME280;50264;52.088;5.296;2023-02-12T03:47:21;103769.0;;;7.68;94.17
64023;BME280;50264;52.088;5.296;2023-02-12T03:49:03;103767.0;;;7.67;94.53
64023;BME280;50264;52.088;5.296;2023-02-12T03:52:32;103772.0;;;7.6;94.89
64023;BME280;50264;52.088;5.296;2023-02-12T03:54:11;103775.0;;;7.63;94.89
64023;BME280;50264;52.088;5.296;2023-02-12T03:55:53;103778.0;;;7.63;94.91
64023;BME280;50264;52.088;5.296;2023-02-12T03:57:38;103780.0;;;7.63;94.59
64023;BME280;50264;52.088;5.296;2023-02-12T03:59:16;103779.0;;;7.68;94.89
64023;BME280;50264;52.088;5.296;2023-02-12T04:02:30;103788.00000000001;;;7.67;94.24
64023;BME280;50264;52.088;5.296;2023-02-12T04:04:08;103783.0;;;7.66;94.08
64023;BME280;50264;52.088;5.296;2023-02-12T04:05:46;103784.99999999999;;;7.61;94.17
64023;BME280;50264;52.088;5.296;2023-02-12T04:09:02;103786.99999999999;;;7.61;94.41
64023;BME280;50264;52.088;5.296;2023-02-12T04:10:51;103782.0;;;7.62;94.85
64023;BME280;50264;52.088;5.296;2023-02-12T04:12:43;103783.0;;;7.61;94.81
64023;BME280;50264;52.088;5.296;2023-02-12T04:14:32;103786.99999999999;;;7.59;95.06
64023;BME280;50264;52.088;5.296;2023-02-12T04:16:21;103790.00000000001;;;7.6;94.85
64023;BME280;50264;52.088;5.296;2023-02-12T04:18:05;103786.99999999999;;;7.59;95.06
64023;BME280;50264;52.088;5.296;2023-02-12T04:21:45;103790.00000000001;;;7.58;95.01
64023;BME280;50264;52.088;5.296;2023-02-12T04:23:39;103792.0;;;7.6;94.74
64023;BME280;50264;52.088;5.296;2023-02-12T04:25:35;103795.0;;;7.55;94.77
64023;BME280;50264;52.088;5.296;2023-02-12T04:27:21;103795.0;;;7.58;95.16
64023;BME280;50264;52.088;5.296;2023-02-12T04:29:10;103798.0;;;7.6;94.97
64023;BME280;50264;52.088;5.296;2023-02-12T04:30:56;103799.0;;;7.61;95.0
64023;BME280;50264;52.088;5.296;2023-02-12T04:34:23;103798.0;;;7.61;94.44
64023;BME280;50264;52.088;5.296;2023-02-12T04:36:12;103802.0;;;7.58;94.72
64023;BME280;50264;52.088;5.296;2023-02-12T04:37:56;103807.0;;;7.54;94.88
64023;BME280;50264;52.088;5.296;2023-02-12T04:39:39;103813.00000000001;;;7.59;94.7
64023;BME280;50264;52.088;5.296;2023-02-12T04:41:16;103808.0;;;7.68;94.53
64023;BME280;50264;52.088;5.296;2023-02-12T04:44:32;103809.99999999999;;;7.69;94.09
64023;BME280;50264;52.088;5.296;2023-02-12T04:46:09;103806.0;;;7.66;94.4
64023;BME280;50264;52.088;5.296;2023-02-12T04:47:47;103811.99999999999;;;7.67;94.12
64023;BME280;50264;52.088;5.296;2023-02-12T04:49:23;103815.00000000001;;;7.66;94.57
64023;BME280;50264;52.088;5.296;2023-02-12T04:52:37;103814.00000000001;;;7.7;94.07
64023;BME280;50264;52.088;5.296;2023-02-12T04:54:16;103815.00000000001;;;7.7;94.1
64023;BME280;50264;52.088;5.296;2023-02-12T04:55:54;103818.0;;;7.71;94.01
64023;BME280;50264;52.088;5.296;2023-02-12T04:59:07;103817.0;;;7.65;94.41
64023;BME280;50264;52.088;5.296;2023-02-12T05:00:45;103811.99999999999;;;7.71;94.32
64023;BME280;50264;52.088;5.296;2023-02-12T05:02:21;103813.00000000001;;;7.86;93.55
64023;BME280;50264;52.088;5.296;2023-02-12T05:03:58;103816.00000000001;;;7.9;93.23
64023;BME280;50264;52.088;5.296;2023-02-12T05:07:11;103816.00000000001;;;7.85;93.37
64023;BME280;50264;52.088;5.296;2023-02-12T05:08:47;103817.0;;;7.79;93.58
64023;BME280;50264;52.088;5.296;2023-02-12T05:10:23;103814.00000000001;;;7.73;93.89
64023;BME280;50264;52.088;5.296;2023-02-12T05:13:37;103819.0;;;7.66;94.37
64023;BME280;50264;52.088;5.296;2023-02-12T05:15:14;103819.0;;;7.62;94.34
64023;BME280;50264;52.088;5.296;2023-02-12T05:16:51;103819.0;;;7.62;93.86
64023;BME280;50264;52.088;5.296;2023-02-12T05:20:06;103819.0;;;7.63;94.44
64023;BME280;50264;52.088;5.296;2023-02-12T05:21:43;103818.0;;;7.66;94.09
64023;BME280;50264;52.088;5.296;2023-02-12T05:23:20;103818.0;;;7.62;93.81
64023;BME280;50264;52.088;5.296;2023-02-12T05:24:56;103815.00000000001;;;7.69;93.69
64023;BME280;50264;52.088;5.296;2023-02-12T05:28:09;103816.00000000001;;;7.65;93.68
64023;BME280;50264;52.088;5.296;2023-02-12T05:29:45;103814.00000000001;;;7.61;93.72
64023;BME280;50264;52.088;5.296;2023-02-12T05:31:21;103815.00000000001;;;7.62;93.72
64023;BME280;50264;52.088;5.296;2023-02-12T05:34:35;103817.0;;;7.67;93.58
64023;BME280;50264;52.088;5.296;2023-02-12T05:36:14;103818.0;;;7.62;93.75
64023;BME280;50264;52.088;5.296;2023-02-12T05:37:52;103822.0;;;7.63;94.07
64023;BME280;50264;52.088;5.296;2023-02-12T05:41:06;103822.0;;;7.73;93.89
64023;BME280;50264;52.088;5.296;2023-02-12T05:42:43;103824.0;;;7.69;93.65
64023;BME280;50264;52.088;5.296;2023-02-12T05:44:19;103822.0;;;7.75;93.45
64023;BME280;50264;52.088;5.296;2023-02-12T05:45:57;103824.0;;;7.69;93.77
64023;BME280;50264;52.088;5.296;2023-02-12T05:50:48;103819.0;;;7.65;93.31
64023;BME280;50264;52.088;5.296;2023-02-12T05:52:24;103824.0;;;7.61;93.83
64023;BME280;50264;52.088;5.296;2023-02-12T05:55:41;103821.0;;;7.66;93.78
64023;BME280;50264;52.088;5.296;2023-02-12T05:57:17;103822.0;;;7.62;93.54
64023;BME280;50264;52.088;5.296;2023-02-12T05:58:55;103827.0;;;7.67;93.32
64023;BME280;50264;52.088;5.296;2023-02-12T06:00:33;103828.0;;;7.65;93.53
64023;BME280;50264;52.088;5.296;2023-02-12T06:03:46;103824.0;;;7.71;93.48
64023;BME280;50264;52.088;5.296;2023-02-12T06:05:23;103821.0;;;7.75;93.37
64023;BME280;50264;52.088;5.296;2023-02-12T06:06:59;103824.0;;;7.7;93.47
64023;BME280;50264;52.088;5.296;2023-02-12T06:10:13;103819.0;;;7.76;93.58
64023;BME280;50264;52.088;5.296;2023-02-12T06:11:50;103825.0;;;7.85;92.98
64023;BME280;50264;52.088;5.296;2023-02-12T06:13:26;103822.0;;;7.75;93.52
64023;BME280;50264;52.088;5.296;2023-02-12T06:16:43;103825.0;;;7.77;93.43
64023;BME280;50264;52.088;5.296;2023-02-12T06:18:20;103827.0;;;7.73;93.4
64023;BME280;50264;52.088;5.296;2023-02-12T06:19:57;103820.0;;;7.65;93.75
64023;BME280;50264;52.088;5.296;2023-02-12T06:21:33;103828.0;;;7.58;93.89
64023;BME280;50264;52.088;5.296;2023-02-12T06:24:46;103829.0;;;7.58;93.88
64023;BME280;50264;52.088;5.296;2023-02-12T06:26:23;103821.0;;;7.55;93.82
64023;BME280;50264;52.088;5.296;2023-02-12T06:28:01;103821.0;;;7.58;93.65
64023;BME280;50264;52.088;5.296;2023-02-12T06:31:18;103825.0;;;7.59;93.82
64023;BME280;50264;52.088;5.296;2023-02-12T06:32:55;103821.0;;;7.57;93.98
64023;BME280;50264;52.088;5.296;2023-02-12T06:34:32;103822.0;;;7.72;93.76
64023;BME280;50264;52.088;5.296;2023-02-12T06:36:09;103824.0;;;7.74;93.45
64023;BME280;50264;52.088;5.296;2023-02-12T06:39:22;103826.0;;;7.78;93.4
64023;BME280;50264;52.088;5.296;2023-02-12T06:41:00;103825.0;;;7.76;93.12
64023;BME280;50264;52.088;5.296;2023-02-12T06:42:37;103824.0;;;7.63;93.62
64023;BME280;50264;52.088;5.296;2023-02-12T06:45:49;103825.0;;;7.6;94.07
64023;BME280;50264;52.088;5.296;2023-02-12T06:47:25;103827.0;;;7.6;93.93
64023;BME280;50264;52.088;5.296;2023-02-12T06:49:03;103827.0;;;7.58;93.83
64023;BME280;50264;52.088;5.296;2023-02-12T06:50:39;103830.0;;;7.57;93.86
64023;BME280;50264;52.088;5.296;2023-02-12T06:53:53;103831.0;;;7.71;93.76
64023;BME280;50264;52.088;5.296;2023-02-12T06:55:30;103833.99999999999;;;7.71;93.44
64023;BME280;50264;52.088;5.296;2023-02-12T06:57:06;103836.99999999999;;;7.67;93.9
64023;BME280;50264;52.088;5.296;2023-02-12T07:00:21;103838.00000000001;;;7.65;94.11
64023;BME280;50264;52.088;5.296;2023-02-12T07:01:58;103839.00000000001;;;7.66;94.1
64023;BME280;50264;52.088;5.296;2023-02-12T07:03:35;103845.0;;;7.68;93.61
64023;BME280;50264;52.088;5.296;2023-02-12T07:06:48;103845.0;;;7.66;93.58
64023;BME280;50264;52.088;5.296;2023-02-12T07:08:24;103850.0;;;7.65;93.21
64023;BME280;50264;52.088;5.296;2023-02-12T07:10:00;103850.0;;;7.66;93.12
64023;BME280;50264;52.088;5.296;2023-02-12T07:11:37;103851.0;;;7.59;93.4
64023;BME280;50264;52.088;5.296;2023-02-12T07:14:50;103848.0;;;7.59;93.66
64023;BME280;50264;52.088;5.296;2023-02-12T07:16:27;103855.0;;;7.59;93.54
64023;BME280;50264;52.088;5.296;2023-02-12T07:18:05;103853.0;;;7.54;93.27
64023;BME280;50264;52.088;5.296;2023-02-12T07:21:17;103855.0;;;7.55;93.95
64023;BME280;50264;52.088;5.296;2023-02-12T07:22:55;103858.0;;;7.63;93.31
64023;BME280;50264;52.088;5.296;2023-02-12T07:24:31;103863.00000000001;;;7.62;93.89
64023;BME280;50264;52.088;5.296;2023-02-12T07:27:47;103858.0;;;7.62;93.33
64023;BME280;50264;52.088;5.296;2023-02-12T07:29:23;103858.0;;;7.62;93.66
64023;BME280;50264;52.088;5.296;2023-02-12T07:31:06;103865.00000000001;;;7.68;93.53
64023;BME280;50264;52.088;5.296;2023-02-12T07:32:43;103865.00000000001;;;7.61;93.98
64023;BME280;50264;52.088;5.296;2023-02-12T07:35:59;103864.00000000001;;;7.71;94.1
64023;BME280;50264;52.088;5.296;2023-02-12T07:37:35;103866.00000000001;;;7.76;93.35
64023;BME280;50264;52.088;5.296;2023-02-12T07:39:12;103875.0;;;7.73;93.71
64023;BME280;50264;52.088;5.296;2023-02-12T07:42:26;103872.0;;;7.8;93.54
64023;BME280;50264;52.088;5.296;2023-02-12T07:44:05;103876.0;;;7.94;92.89
64023;BME280;50264;52.088;5.296;2023-02-12T07:45:42;103875.0;;;7.88;91.64
64023;BME280;50264;52.088;5.296;2023-02-12T07:47:18;103878.0;;;7.94;91.67
64023;BME280;50264;52.088;5.296;2023-02-12T07:50:33;103878.0;;;7.91;91.86
64023;BME280;50264;52.088;5.296;2023-02-12T07:52:11;103881.0;;;7.86;92.22
64023;BME280;50264;52.088;5.296;2023-02-12T07:53:48;103889.00000000001;;;7.82;92.44
64023;BME280;50264;52.088;5.296;2023-02-12T07:57:02;103883.99999999999;;;7.87;92.57
64023;BME280;50264;52.088;5.296;2023-02-12T07:58:40;103886.99999999999;;;7.86;92.59
64023;BME280;50264;52.088;5.296;2023-02-12T08:00:18;103884.99999999999;;;7.95;92.3
64023;BME280;50264;52.088;5.296;2023-02-12T08:01:55;103883.99999999999;;;7.9;92.26
64023;BME280;50264;52.088;5.296;2023-02-12T08:05:08;103886.99999999999;;;7.83;93.12
64023;BME280;50264;52.088;5.296;2023-02-12T08:06:47;103883.99999999999;;;7.81;93.77
64023;BME280;50264;52.088;5.296;2023-02-12T08:08:24;103892.0;;;7.85;93.4
64023;BME280;50264;52.088;5.296;2023-02-12T08:11:39;103886.99999999999;;;7.9;93.36
64023;BME280;50264;52.088;5.296;2023-02-12T08:13:16;103895.0;;;7.91;93.29
64023;BME280;50264;52.088;5.296;2023-02-12T08:14:53;103894.0;;;7.99;92.83
64023;BME280;50264;52.088;5.296;2023-02-12T08:16:30;103898.0;;;7.99;92.73
64023;BME280;50264;52.088;5.296;2023-02-12T08:19:47;103899.0;;;8.01;92.77
64023;BME280;50264;52.088;5.296;2023-02-12T08:21:25;103902.0;;;8.08;92.72
64023;BME280;50264;52.088;5.296;2023-02-12T08:23:03;103906.0;;;8.1;92.17
64023;BME280;50264;52.088;5.296;2023-02-12T08:26:17;103903.0;;;8.13;92.47
64023;BME280;50264;52.088;5.296;2023-02-12T08:27:54;103908.0;;;8.23;91.64
64023;BME280;50264;52.088;5.296;2023-02-12T08:29:30;103907.0;;;8.14;92.14
64023;BME280;50264;52.088;5.296;2023-02-12T08:31:10;103914.00000000001;;;8.17;92.0
64023;BME280;50264;52.088;5.296;2023-02-12T08:34:29;103914.00000000001;;;8.11;91.57
64023;BME280;50264;52.088;5.296;2023-02-12T08:36:07;103919.0;;;8.22;90.76
64023;BME280;50264;52.088;5.296;2023-02-12T08:37:45;103917.0;;;8.28;91.13
64023;BME280;50264;52.088;5.296;2023-02-12T08:41:00;103921.0;;;8.4;90.68
64023;BME280;50264;52.088;5.296;2023-02-12T08:42:37;103920.0;;;8.36;90.8
64023;BME280;50264;52.088;5.296;2023-02-12T08:44:14;103927.0;;;8.36;90.84
64023;BME280;50264;52.088;5.296;2023-02-12T08:45:51;103926.0;;;8.32;90.78
64023;BME280;50264;52.088;5.296;2023-02-12T08:49:06;103926.0;;;8.32;91.46
64023;BME280;50264;52.088;5.296;2023-02-12T08:50:44;103927.0;;;8.34;90.8
64023;BME280;50264;52.088;5.296;2023-02-12T08:52:21;103928.0;;;8.27;91.77
64023;BME280;50264;52.088;5.296;2023-02-12T08:55:36;103933.0;;;8.39;91.34
64023;BME280;50264;52.088;5.296;2023-02-12T08:57:13;103933.99999999999;;;8.36;91.65
64023;BME280;50264;52.088;5.296;2023-02-12T08:58:49;103939.00000000001;;;8.36;91.3
64023;BME280;50264;52.088;5.296;2023-02-12T09:00:26;103932.0;;;8.34;91.61
64023;BME280;50264;52.088;5.296;2023-02-12T09:03:41;103933.99999999999;;;8.39;91.54
64023;BME280;50264;52.088;5.296;2023-02-12T09:05:17;103932.0;;;8.35;91.66
64023;BME280;50264;52.088;5.296;2023-02-12T09:06:54;103936.99999999999;;;8.41;90.77
64023;BME280;50264;52.088;5.296;2023-02-12T09:10:09;103930.0;;;8.48;90.9
64023;BME280;50264;52.088;5.296;2023-02-12T09:11:46;103933.0;;;8.47;91.01
64023;BME280;50264;52.088;5.296;2023-02-12T09:13:23;103936.99999999999;;;8.6;91.16
64023;BME280;50264;52.088;5.296;2023-02-12T09:16:38;103940.00000000001;;;8.63;89.01
64023;BME280;50264;52.088;5.296;2023-02-12T09:18:16;103942.0;;;8.67;90.12
64023;BME280;50264;52.088;5.296;2023-02-12T09:19:53;103943.0;;;8.66;90.74
64023;BME280;50264;52.088;5.296;2023-02-12T09:21:30;103940.00000000001;;;8.67;89.96
64023;BME280;50264;52.088;5.296;2023-02-12T09:24:46;103941.00000000001;;;8.73;90.18
64023;BME280;50264;52.088;5.296;2023-02-12T09:26:25;103944.0;;;8.8;89.52
64023;BME280;50264;52.088;5.296;2023-02-12T09:28:01;103942.0;;;8.73;88.85
64023;BME280;50264;52.088;5.296;2023-02-12T09:31:16;103942.0;;;8.8;88.68
64023;BME280;50264;52.088;5.296;2023-02-12T09:32:55;103943.0;;;8.77;89.4
64023;BME280;50264;52.088;5.296;2023-02-12T09:34:33;103942.0;;;8.78;87.91
64023;BME280;50264;52.088;5.296;2023-02-12T09:36:12;103942.0;;;8.8;86.59
64023;BME280;50264;52.088;5.296;2023-02-12T09:39:29;103944.0;;;8.86;86.6
64023;BME280;50264;52.088;5.296;2023-02-12T09:41:17;103945.0;;;8.89;86.95
64023;BME280;50264;52.088;5.296;2023-02-12T09:43:12;103943.0;;;8.94;87.18
64023;BME280;50264;52.088;5.296;2023-02-12T09:44:57;103942.0;;;8.9;86.89
64023;BME280;50264;52.088;5.296;2023-02-12T09:46:42;103944.0;;;9.0;87.49
64023;BME280;50264;52.088;5.296;2023-02-12T09:50:41;103941.00000000001;;;9.03;86.42
64023;BME280;50264;52.088;5.296;2023-02-12T09:52:24;103944.0;;;9.06;85.71
64023;BME280;50264;52.088;5.296;2023-02-12T09:54:05;103940.00000000001;;;9.03;84.68
64023;BME280;50264;52.088;5.296;2023-02-12T09:55:46;103941.00000000001;;;9.02;84.12
64023;BME280;50264;52.088;5.296;2023-02-12T09:57:26;103944.0;;;8.99;83.16
64023;BME280;50264;52.088;5.296;2023-02-12T09:59:06;103944.0;;;9.05;83.9
64023;BME280;50264;52.088;5.296;2023-02-12T10:02:22;103947.0;;;9.1;83.8
64023;BME280;50264;52.088;5.296;2023-02-12T10:04:00;103946.0;;;9.14;84.68
64023;BME280;50264;52.088;5.296;2023-02-12T10:05:40;103950.0;;;9.13;84.23
64023;BME280;50264;52.088;5.296;2023-02-12T10:09:25;103948.0;;;9.13;84.75
64023;BME280;50264;52.088;5.296;2023-02-12T10:11:20;103942.0;;;9.13;83.13
64023;BME280;50264;52.088;5.296;2023-02-12T10:13:25;103942.0;;;9.14;83.46
64023;BME280;50264;52.088;5.296;2023-02-12T10:15:16;103941.00000000001;;;9.23;83.81
64023;BME280;50264;52.088;5.296;2023-02-12T10:17:07;103944.0;;;9.15;82.33
64023;BME280;50264;52.088;5.296;2023-02-12T10:18:58;103944.0;;;9.18;82.13
64023;BME280;50264;52.088;5.296;2023-02-12T10:22:54;103943.0;;;9.24;82.01
64023;BME280;50264;52.088;5.296;2023-02-12T10:24:51;103942.0;;;9.19;82.41
64023;BME280;50264;52.088;5.296;2023-02-12T10:26:36;103934.99999999999;;;9.26;83.04
64023;BME280;50264;52.088;5.296;2023-02-12T10:29:55;103944.0;;;9.33;82.88
64023;BME280;50264;52.088;5.296;2023-02-12T10:31:36;103948.0;;;9.38;83.8
64023;BME280;50264;52.088;5.296;2023-02-12T10:33:16;103943.0;;;9.39;83.95
64023;BME280;50264;52.088;5.296;2023-02-12T10:34:56;103944.0;;;9.27;81.96
64023;BME280;50264;52.088;5.296;2023-02-12T10:38:20;103942.0;;;9.25;81.61
64023;BME280;50264;52.088;5.296;2023-02-12T10:40:00;103942.0;;;9.36;82.48
64023;BME280;50264;52.088;5.296;2023-02-12T10:41:44;103945.0;;;9.36;81.37
64023;BME280;50264;52.088;5.296;2023-02-12T10:48:17;103944.0;;;9.39;80.64
64023;BME280;50264;52.088;5.296;2023-02-12T10:49:57;103939.00000000001;;;9.56;81.45
64023;BME280;50264;52.088;5.296;2023-02-12T10:51:42;103945.0;;;9.64;80.3
64023;BME280;50264;52.088;5.296;2023-02-12T10:53:29;103942.0;;;9.55;79.47
64023;BME280;50264;52.088;5.296;2023-02-12T10:57:07;103944.0;;;9.51;79.72
64023;BME280;50264;52.088;5.296;2023-02-12T10:58:53;103944.0;;;9.52;79.64
64023;BME280;50264;52.088;5.296;2023-02-12T11:00:32;103941.00000000001;;;9.51;81.37
64023;BME280;50264;52.088;5.296;2023-02-12T11:02:30;103940.00000000001;;;9.53;80.47
64023;BME280;50264;52.088;5.296;2023-02-12T11:04:20;103938.00000000001;;;9.46;80.19
64023;BME280;50264;52.088;5.296;2023-02-12T11:09:30;103941.00000000001;;;9.58;80.14
64023;BME280;50264;52.088;5.296;2023-02-12T11:11:09;103943.0;;;9.53;78.98